createdAt,value
2018-11-05T00:00:20.611Z,84.49
2018-11-05T00:00:59.037Z,84.70
2018-11-05T00:01:37.552Z,84.67
2018-11-05T00:02:15.874Z,84.63
2018-11-05T00:02:55.124Z,85.07
2018-11-05T00:03:33.029Z,85.72
2018-11-05T00:04:11.973Z,85.64
2018-11-05T00:04:50.081Z,84.62
2018-11-05T00:05:28.196Z,85.42
2018-11-05T00:06:06.080Z,85.26
2018-11-05T00:06:43.900Z,84.12
2018-11-05T00:07:21.890Z,85.12
2018-11-05T00:07:59.986Z,85.49
2018-11-05T00:08:38.193Z,85.24
2018-11-05T00:09:16.351Z,85.29
2018-11-05T00:09:55.340Z,84.42
2018-11-05T00:10:33.383Z,84.90
2018-11-05T00:11:11.409Z,83.81
2018-11-05T00:11:49.490Z,84.91
2018-11-05T00:12:27.437Z,84.24
2018-11-05T00:13:05.362Z,84.87
2018-11-05T00:13:43.436Z,83.72
2018-11-05T00:14:21.432Z,83.36
2018-11-05T00:14:59.453Z,83.65
2018-11-05T00:15:37.458Z,84.02
2018-11-05T00:16:15.341Z,84.38
2018-11-05T00:16:53.451Z,83.60
2018-11-05T00:17:31.478Z,83.78
2018-11-05T00:18:09.714Z,83.79
2018-11-05T00:18:47.576Z,83.50
2018-11-05T00:19:25.457Z,82.53
2018-11-05T00:20:03.457Z,83.51
2018-11-05T00:20:41.407Z,82.72
2018-11-05T00:21:19.409Z,83.13
2018-11-05T00:21:57.362Z,83.04
2018-11-05T00:22:35.546Z,82.37
2018-11-05T00:23:13.437Z,82.30
2018-11-05T00:23:51.612Z,82.07
2018-11-05T00:24:29.599Z,81.69
2018-11-05T00:25:07.629Z,82.77
2018-11-05T00:25:45.788Z,81.65
2018-11-05T00:26:23.650Z,81.58
2018-11-05T00:27:01.544Z,81.02
2018-11-05T00:27:39.533Z,82.32
2018-11-05T00:28:17.740Z,81.87
2018-11-05T00:28:56.674Z,80.69
2018-11-05T00:29:34.608Z,80.57
2018-11-05T00:30:14.617Z,80.92
2018-11-05T00:30:52.533Z,81.58
2018-11-05T00:31:30.524Z,81.14
2018-11-05T00:32:08.468Z,79.87
2018-11-05T00:32:46.695Z,80.34
2018-11-05T00:33:24.718Z,80.74
2018-11-05T00:34:02.609Z,80.04
2018-11-05T00:34:40.561Z,79.98
2018-11-05T00:35:18.582Z,80.40
2018-11-05T00:35:56.508Z,79.08
2018-11-05T00:36:34.497Z,79.79
2018-11-05T00:37:12.424Z,79.91
2018-11-05T00:37:50.416Z,78.46
2018-11-05T00:38:28.434Z,78.03
2018-11-05T00:39:06.966Z,77.52
2018-11-05T00:39:45.812Z,77.33
2018-11-05T00:40:23.798Z,76.42
2018-11-05T00:41:01.756Z,75.70
2018-11-05T00:41:40.352Z,76.15
2018-11-05T00:42:18.501Z,74.78
2018-11-05T00:42:56.576Z,74.92
2018-11-05T00:43:35.446Z,75.35
2018-11-05T00:47:15.137Z,74.02
2018-11-05T00:47:53.540Z,73.14
2018-11-05T00:48:31.501Z,74.07
2018-11-05T00:49:09.561Z,73.43
2018-11-05T00:49:47.455Z,73.60
2018-11-05T00:50:25.364Z,72.81
2018-11-05T00:51:04.248Z,72.67
2018-11-05T00:51:42.499Z,72.70
2018-11-05T00:52:21.296Z,72.66
2018-11-05T00:52:59.521Z,72.56
2018-11-05T00:53:37.459Z,73.10
2018-11-05T00:54:15.401Z,72.78
2018-11-05T00:54:53.689Z,73.59
2018-11-05T00:55:32.052Z,73.08
2018-11-05T00:56:09.944Z,73.38
2018-11-05T00:56:47.829Z,72.91
2018-11-05T00:57:25.659Z,72.92
2018-11-05T00:58:03.731Z,72.54
2018-11-05T00:58:41.700Z,73.23
2018-11-05T00:59:19.669Z,72.60
2018-11-05T00:59:57.590Z,72.72
2018-11-05T01:00:35.516Z,72.80
2018-11-05T01:01:13.646Z,72.72
2018-11-05T01:01:51.548Z,72.46
2018-11-05T01:02:29.433Z,72.34
2018-11-05T01:03:07.480Z,72.25
2018-11-05T01:03:45.658Z,71.91
2018-11-05T01:04:24.472Z,72.29
2018-11-05T01:05:02.770Z,72.33
2018-11-05T01:05:40.873Z,72.21
2018-11-05T01:06:18.839Z,71.99
2018-11-05T01:06:57.090Z,71.06
2018-11-05T01:07:35.097Z,71.58
2018-11-05T01:08:13.007Z,71.38
2018-11-05T01:08:50.967Z,71.10
2018-11-05T01:09:29.065Z,70.99
2018-11-05T01:10:07.073Z,70.96
2018-11-05T01:10:45.104Z,70.62
2018-11-05T01:11:23.062Z,70.64
2018-11-05T01:12:01.083Z,70.04
2018-11-05T01:12:39.351Z,69.87
2018-11-05T01:13:17.220Z,69.31
2018-11-05T01:13:55.183Z,69.27
2018-11-05T01:14:33.109Z,68.74
2018-11-05T01:15:16.726Z,68.88
2018-11-05T01:15:54.904Z,68.72
2018-11-05T01:16:32.802Z,68.50
2018-11-05T01:17:11.012Z,68.18
2018-11-05T01:17:48.853Z,68.37
2018-11-05T01:18:27.098Z,68.95
2018-11-05T01:19:05.223Z,69.13
2018-11-05T01:19:43.217Z,70.13
2018-11-05T01:20:21.135Z,69.89
2018-11-05T01:20:59.302Z,70.42
2018-11-05T01:21:37.406Z,71.21
2018-11-05T01:22:15.318Z,70.54
2018-11-05T01:22:53.336Z,70.60
2018-11-05T01:23:31.526Z,70.48
2018-11-05T01:24:10.140Z,70.45
2018-11-05T01:24:48.335Z,70.28
2018-11-05T01:25:26.577Z,70.41
2018-11-05T01:26:04.735Z,70.11
2018-11-05T01:26:42.875Z,69.88
2018-11-05T01:27:22.234Z,70.59
2018-11-05T01:28:01.309Z,70.47
2018-11-05T01:28:39.470Z,70.71
2018-11-05T01:29:17.641Z,70.16
2018-11-05T01:29:55.803Z,70.39
2018-11-05T01:30:34.014Z,70.12
2018-11-05T01:31:12.142Z,70.20
2018-11-05T01:31:50.106Z,70.37
2018-11-05T01:32:28.043Z,70.41
2018-11-05T01:33:06.202Z,70.61
2018-11-05T01:33:44.393Z,70.41
2018-11-05T01:34:22.675Z,70.45
2018-11-05T01:35:00.889Z,69.99
2018-11-05T01:35:39.297Z,69.86
2018-11-05T01:36:17.393Z,70.04
2018-11-05T01:36:55.441Z,70.10
2018-11-05T01:37:34.467Z,70.20
2018-11-05T01:38:12.594Z,70.33
2018-11-05T01:38:50.781Z,70.58
2018-11-05T01:39:28.933Z,70.48
2018-11-05T01:40:07.089Z,70.80
2018-11-05T01:40:45.365Z,71.09
2018-11-05T01:41:23.278Z,71.23
2018-11-05T01:42:01.353Z,71.72
2018-11-05T01:42:39.764Z,70.87
2018-11-05T01:43:17.955Z,71.41
2018-11-05T01:43:56.048Z,71.61
2018-11-05T01:44:34.074Z,72.12
2018-11-05T01:45:13.915Z,71.59
2018-11-05T01:45:52.120Z,71.55
2018-11-05T01:46:30.147Z,71.54
2018-11-05T01:47:08.147Z,71.48
2018-11-05T01:47:46.525Z,71.52
2018-11-05T01:48:24.648Z,71.51
2018-11-05T01:49:02.671Z,71.35
2018-11-05T01:49:40.623Z,70.13
2018-11-05T01:50:18.916Z,70.78
2018-11-05T01:50:57.045Z,70.65
2018-11-05T01:51:35.205Z,70.78
2018-11-05T01:52:13.199Z,70.47
2018-11-05T01:52:51.071Z,70.52
2018-11-05T01:53:29.303Z,70.55
2018-11-05T01:54:07.263Z,70.73
2018-11-05T01:54:45.393Z,70.66
2018-11-05T01:55:23.513Z,70.91
2018-11-05T01:56:01.537Z,70.92
2018-11-05T01:56:39.984Z,70.09
2018-11-05T01:57:18.313Z,70.65
2018-11-05T01:57:57.014Z,70.92
2018-11-05T01:58:35.055Z,70.70
2018-11-05T02:00:11.066Z,70.91
2018-11-05T02:00:49.174Z,71.26
2018-11-05T02:01:27.414Z,71.01
2018-11-05T02:02:05.678Z,71.27
2018-11-05T02:02:43.832Z,70.75
2018-11-05T02:03:21.887Z,70.71
2018-11-05T02:03:59.850Z,70.97
2018-11-05T02:04:37.755Z,70.88
2018-11-05T02:05:15.728Z,70.99
2018-11-05T02:05:53.728Z,71.17
2018-11-05T02:06:32.064Z,71.49
2018-11-05T02:07:10.558Z,71.47
2018-11-05T02:07:49.139Z,71.75
2018-11-05T02:08:27.049Z,71.78
2018-11-05T02:09:05.413Z,71.62
2018-11-05T02:09:43.555Z,71.63
2018-11-05T02:10:21.862Z,71.59
2018-11-05T02:10:59.854Z,71.78
2018-11-05T02:11:38.832Z,71.99
2018-11-05T02:12:16.954Z,71.59
2018-11-05T02:12:55.660Z,71.54
2018-11-05T02:13:33.746Z,71.19
2018-11-05T02:14:11.882Z,70.94
2018-11-05T02:14:49.838Z,70.99
2018-11-05T02:15:27.835Z,71.25
2018-11-05T02:16:05.937Z,71.45
2018-11-05T02:16:43.959Z,71.82
2018-11-05T02:17:22.401Z,71.73
2018-11-05T02:18:00.364Z,71.87
2018-11-05T02:18:38.484Z,71.72
2018-11-05T02:19:16.757Z,71.60
2018-11-05T02:19:54.716Z,71.20
2018-11-05T02:20:32.674Z,71.11
2018-11-05T02:21:10.870Z,70.75
2018-11-05T02:21:48.876Z,70.85
2018-11-05T02:22:26.852Z,70.13
2018-11-05T02:23:05.236Z,70.00
2018-11-05T02:23:43.190Z,69.71
2018-11-05T02:24:21.091Z,69.45
2018-11-05T02:24:59.377Z,69.12
2018-11-05T02:25:37.319Z,68.56
2018-11-05T02:26:15.604Z,68.44
2018-11-05T02:26:54.013Z,68.62
2018-11-05T02:27:32.411Z,68.73
2018-11-05T02:28:10.830Z,68.87
2018-11-05T02:28:48.905Z,68.44
2018-11-05T02:29:26.754Z,68.49
2018-11-05T02:30:04.806Z,67.79
2018-11-05T02:30:42.976Z,67.28
2018-11-05T02:31:21.023Z,67.57
2018-11-05T02:31:59.401Z,66.80
2018-11-05T02:32:37.342Z,66.50
2018-11-05T02:33:15.299Z,65.72
2018-11-05T02:33:54.458Z,65.45
2018-11-05T02:34:32.454Z,65.66
2018-11-05T02:35:13.821Z,65.63
2018-11-05T02:35:51.886Z,65.54
2018-11-05T02:36:30.189Z,65.72
2018-11-05T02:37:08.401Z,65.76
2018-11-05T02:37:47.204Z,65.67
2018-11-05T02:38:25.146Z,65.96
2018-11-05T02:39:03.058Z,66.39
2018-11-05T02:39:40.966Z,66.26
2018-11-05T02:40:21.033Z,66.19
2018-11-05T02:40:59.204Z,66.05
2018-11-05T02:41:37.147Z,65.74
2018-11-05T02:42:15.180Z,65.75
2018-11-05T02:42:53.542Z,65.54
2018-11-05T02:43:31.949Z,65.38
2018-11-05T02:44:10.292Z,65.64
2018-11-05T02:44:48.288Z,66.00
2018-11-05T02:45:26.471Z,66.39
2018-11-05T02:46:04.374Z,66.61
2018-11-05T02:46:42.581Z,66.64
2018-11-05T02:47:20.661Z,66.22
2018-11-05T02:47:58.868Z,65.81
2018-11-05T02:48:36.786Z,64.92
2018-11-05T02:49:18.935Z,64.95
2018-11-05T02:49:57.338Z,64.81
2018-11-05T02:50:35.435Z,64.70
2018-11-05T02:51:13.565Z,64.52
2018-11-05T02:51:51.816Z,64.58
2018-11-05T02:52:29.963Z,63.83
2018-11-05T02:53:07.884Z,63.48
2018-11-05T02:53:45.885Z,63.54
2018-11-05T02:54:24.054Z,64.04
2018-11-05T02:55:01.993Z,64.01
2018-11-05T02:55:40.102Z,63.54
2018-11-05T02:56:18.074Z,63.17
2018-11-05T02:56:56.258Z,62.96
2018-11-05T02:57:35.379Z,63.02
2018-11-05T02:58:13.370Z,62.38
2018-11-05T02:58:51.300Z,62.30
2018-11-05T02:59:29.251Z,62.52
2018-11-05T03:00:08.569Z,62.57
2018-11-05T03:00:46.700Z,62.66
2018-11-05T03:01:24.867Z,62.84
2018-11-05T03:02:03.088Z,63.20
2018-11-05T03:02:41.322Z,63.99
2018-11-05T03:03:19.748Z,64.35
2018-11-05T03:03:57.974Z,64.35
2018-11-05T03:04:35.922Z,63.42
2018-11-05T03:05:15.980Z,63.51
2018-11-05T03:05:54.066Z,63.11
2018-11-05T03:06:32.227Z,63.34
2018-11-05T03:07:10.312Z,63.49
2018-11-05T03:07:49.161Z,63.78
2018-11-05T03:08:27.128Z,63.45
2018-11-05T03:09:05.494Z,63.96
2018-11-05T03:09:43.536Z,63.72
2018-11-05T03:10:21.442Z,63.35
2018-11-05T03:11:00.255Z,62.92
2018-11-05T03:11:38.757Z,63.34
2018-11-05T03:12:16.801Z,63.26
2018-11-05T03:12:54.703Z,64.16
2018-11-05T03:13:32.799Z,63.73
2018-11-05T03:14:11.088Z,63.59
2018-11-05T03:14:49.123Z,63.47
2018-11-05T03:15:27.177Z,63.57
2018-11-05T03:16:05.066Z,63.63
2018-11-05T03:16:42.989Z,63.31
2018-11-05T03:17:20.956Z,64.08
2018-11-05T03:17:59.026Z,64.38
2018-11-05T03:18:37.016Z,64.46
2018-11-05T03:19:15.132Z,63.79
2018-11-05T03:19:53.089Z,64.03
2018-11-05T03:20:31.178Z,64.21
2018-11-05T03:21:09.390Z,64.79
2018-11-05T03:21:47.554Z,63.98
2018-11-05T03:22:25.777Z,64.10
2018-11-05T03:23:03.803Z,63.50
2018-11-05T03:23:41.761Z,62.67
2018-11-05T03:24:19.859Z,63.02
2018-11-05T03:24:57.985Z,62.83
2018-11-05T03:25:37.200Z,62.77
2018-11-05T03:26:15.143Z,63.51
2018-11-05T03:26:53.340Z,63.26
2018-11-05T03:27:31.490Z,64.15
2018-11-05T03:28:09.565Z,63.37
2018-11-05T03:28:47.571Z,62.51
2018-11-05T03:29:25.559Z,62.83
2018-11-05T03:30:03.546Z,62.75
2018-11-05T03:30:41.796Z,62.63
2018-11-05T03:31:19.758Z,62.94
2018-11-05T03:31:57.745Z,62.85
2018-11-05T03:32:35.879Z,63.85
2018-11-05T03:33:13.822Z,63.31
2018-11-05T03:33:51.746Z,63.41
2018-11-05T03:34:29.955Z,63.34
2018-11-05T03:35:08.755Z,63.26
2018-11-05T03:35:46.849Z,62.19
2018-11-05T03:36:25.138Z,62.03
2018-11-05T03:37:02.997Z,61.85
2018-11-05T03:37:41.656Z,61.86
2018-11-05T03:38:19.593Z,62.20
2018-11-05T03:38:57.574Z,61.85
2018-11-05T03:39:35.612Z,61.89
2018-11-05T03:40:15.149Z,61.99
2018-11-05T03:40:53.278Z,62.35
2018-11-05T03:41:31.173Z,61.65
2018-11-05T03:42:09.348Z,61.18
2018-11-05T03:42:48.616Z,61.66
2018-11-05T03:43:26.819Z,60.96
2018-11-05T03:44:04.970Z,60.96
2018-11-05T03:44:42.918Z,61.62
2018-11-05T03:45:21.175Z,62.14
2018-11-05T03:45:59.118Z,62.58
2018-11-05T03:46:37.195Z,62.34
2018-11-05T03:47:16.017Z,62.74
2018-11-05T03:47:54.033Z,63.27
2018-11-05T03:48:32.029Z,63.16
2018-11-05T03:49:11.551Z,62.70
2018-11-05T03:49:49.478Z,62.41
2018-11-05T03:50:27.438Z,62.95
2018-11-05T03:51:06.313Z,62.73
2018-11-05T03:51:44.303Z,62.34
2018-11-05T03:52:22.267Z,61.67
2018-11-05T03:53:01.147Z,62.86
2018-11-05T03:53:39.162Z,62.55
2018-11-05T03:54:18.172Z,62.31
2018-11-05T03:54:56.149Z,62.46
2018-11-05T03:55:34.267Z,61.64
2018-11-05T03:56:12.520Z,61.82
2018-11-05T03:56:50.471Z,62.09
2018-11-05T03:57:28.754Z,62.24
2018-11-05T03:58:06.793Z,62.97
2018-11-05T03:58:44.865Z,63.25
2018-11-05T03:59:22.801Z,63.26
2018-11-05T04:00:00.760Z,63.29
2018-11-05T04:00:38.842Z,63.34
2018-11-05T04:01:16.866Z,63.54
2018-11-05T04:01:54.833Z,63.96
2018-11-05T04:02:32.794Z,64.44
2018-11-05T04:03:11.139Z,63.89
2018-11-05T04:03:49.539Z,64.10
2018-11-05T04:04:28.443Z,64.78
2018-11-05T04:05:06.599Z,64.30
2018-11-05T04:05:44.582Z,64.24
2018-11-05T04:06:22.485Z,64.46
2018-11-05T04:07:00.409Z,64.05
2018-11-05T04:07:38.478Z,64.14
2018-11-05T04:08:16.398Z,64.25
2018-11-05T04:08:55.154Z,63.94
2018-11-05T04:09:33.205Z,64.09
2018-11-05T04:10:12.670Z,64.32
2018-11-05T04:10:50.614Z,64.10
2018-11-05T04:11:28.585Z,64.33
2018-11-05T04:12:06.682Z,64.45
2018-11-05T04:12:44.701Z,63.76
2018-11-05T04:13:22.900Z,63.93
2018-11-05T04:14:00.777Z,63.73
2018-11-05T04:14:39.555Z,63.29
2018-11-05T04:15:17.754Z,63.17
2018-11-05T04:15:56.872Z,63.58
2018-11-05T04:16:35.145Z,63.81
2018-11-05T04:17:13.310Z,63.54
2018-11-05T04:17:51.149Z,64.32
2018-11-05T04:18:29.180Z,63.54
2018-11-05T04:19:07.311Z,63.90
2018-11-05T04:19:45.203Z,62.86
2018-11-05T04:20:23.211Z,63.04
2018-11-05T04:21:01.077Z,63.39
2018-11-05T04:21:46.940Z,62.83
2018-11-05T04:22:24.919Z,63.18
2018-11-05T04:23:03.048Z,63.20
2018-11-05T04:23:40.916Z,63.19
2018-11-05T04:24:18.947Z,63.30
2018-11-05T04:24:56.880Z,63.19
2018-11-05T04:25:34.842Z,63.25
2018-11-05T04:26:12.769Z,62.94
2018-11-05T04:26:50.744Z,63.08
2018-11-05T04:27:28.769Z,63.13
2018-11-05T04:28:06.859Z,63.33
2018-11-05T04:28:44.761Z,63.37
2018-11-05T04:29:22.595Z,63.41
2018-11-05T04:30:00.519Z,63.25
2018-11-05T04:30:38.518Z,63.44
2018-11-05T04:31:16.456Z,63.38
2018-11-05T04:31:54.393Z,63.69
2018-11-05T04:32:32.549Z,63.52
2018-11-05T04:33:10.619Z,63.45
2018-11-05T04:33:48.982Z,62.71
2018-11-05T04:34:26.938Z,62.59
2018-11-05T04:35:04.944Z,62.63
2018-11-05T04:35:42.882Z,63.03
2018-11-05T04:36:20.817Z,62.77
2018-11-05T04:36:59.049Z,62.77
2018-11-05T04:37:37.150Z,62.59
2018-11-05T04:38:15.069Z,62.44
2018-11-05T04:38:53.010Z,62.86
2018-11-05T04:39:31.515Z,62.21
2018-11-05T04:40:10.195Z,62.56
2018-11-05T04:40:48.192Z,61.17
2018-11-05T04:41:26.088Z,61.80
2018-11-05T04:42:04.005Z,60.85
2018-11-05T04:42:41.921Z,61.33
2018-11-05T04:43:19.809Z,60.44
2018-11-05T04:43:57.833Z,60.90
2018-11-05T04:44:35.759Z,60.88
2018-11-05T04:45:15.025Z,61.06
2018-11-05T04:45:53.054Z,61.09
2018-11-05T04:46:30.977Z,61.18
2018-11-05T04:47:09.089Z,60.42
2018-11-05T04:47:46.951Z,60.79
2018-11-05T04:48:24.818Z,60.57
2018-11-05T04:49:02.700Z,59.61
2018-11-05T04:49:40.633Z,60.68
2018-11-05T04:50:18.745Z,60.31
2018-11-05T04:50:56.608Z,61.12
2018-11-05T04:51:34.629Z,61.46
2018-11-05T04:52:12.456Z,61.86
2018-11-05T04:52:50.440Z,61.72
2018-11-05T04:53:28.368Z,61.53
2018-11-05T04:54:06.517Z,61.94
2018-11-05T04:54:44.701Z,61.59
2018-11-05T04:55:22.609Z,62.50
2018-11-05T04:56:00.541Z,62.02
2018-11-05T04:56:38.659Z,62.22
2018-11-05T04:57:16.576Z,62.27
2018-11-05T04:57:54.568Z,62.19
2018-11-05T04:58:32.444Z,62.29
2018-11-05T04:59:10.910Z,61.89
2018-11-05T04:59:48.846Z,62.10
2018-11-05T05:00:26.990Z,61.97
2018-11-05T05:01:05.022Z,62.04
2018-11-05T05:01:42.960Z,61.46
2018-11-05T05:02:22.624Z,61.41
2018-11-05T05:03:00.590Z,62.38
2018-11-05T05:03:38.610Z,62.07
2018-11-05T05:04:16.618Z,62.12
2018-11-05T05:04:54.525Z,62.35
2018-11-05T05:05:32.431Z,61.65
2018-11-05T05:06:10.658Z,61.71
2018-11-05T05:06:48.620Z,62.06
2018-11-05T05:07:26.731Z,61.53
2018-11-05T05:08:05.282Z,61.57
2018-11-05T05:08:43.292Z,61.52
2018-11-05T05:09:21.202Z,61.10
2018-11-05T05:09:59.140Z,60.26
2018-11-05T05:10:37.359Z,60.25
2018-11-05T05:11:15.317Z,60.93
2018-11-05T05:11:53.267Z,61.05
2018-11-05T05:12:33.514Z,60.99
2018-11-05T05:13:11.486Z,59.20
2018-11-05T05:13:49.740Z,59.57
2018-11-05T05:14:27.684Z,58.76
2018-11-05T05:15:06.669Z,58.57
2018-11-05T05:15:44.549Z,57.78
2018-11-05T05:16:22.754Z,58.42
2018-11-05T05:17:00.884Z,59.07
2018-11-05T05:17:38.913Z,59.04
2018-11-05T05:18:16.862Z,59.03
2018-11-05T05:18:55.003Z,59.38
2018-11-05T05:19:32.976Z,59.65
2018-11-05T05:20:14.347Z,59.46
2018-11-05T05:20:52.432Z,59.89
2018-11-05T05:21:30.289Z,59.31
2018-11-05T05:22:08.602Z,58.74
2018-11-05T05:22:46.691Z,59.44
2018-11-05T05:23:24.729Z,58.84
2018-11-05T05:24:03.020Z,58.72
2018-11-05T05:24:40.991Z,57.80
2018-11-05T05:25:18.892Z,58.88
2018-11-05T05:26:38.830Z,57.94
2018-11-05T05:27:16.820Z,58.38
2018-11-05T05:27:54.826Z,57.89
2018-11-05T05:28:33.731Z,59.10
2018-11-05T05:29:11.806Z,58.52
2018-11-05T05:29:50.207Z,58.09
2018-11-05T05:30:28.197Z,59.27
2018-11-05T05:31:06.423Z,58.67
2018-11-05T05:31:44.532Z,59.22
2018-11-05T05:32:22.532Z,59.85
2018-11-05T05:33:00.410Z,59.30
2018-11-05T05:33:38.606Z,60.16
2018-11-05T05:34:16.795Z,59.68
2018-11-05T05:34:54.795Z,60.98
2018-11-05T05:35:32.725Z,60.03
2018-11-05T05:36:11.651Z,60.53
2018-11-05T05:36:49.652Z,59.94
2018-11-05T05:37:27.619Z,60.15
2018-11-05T05:38:05.620Z,61.37
2018-11-05T05:38:43.573Z,60.89
2018-11-05T05:39:21.562Z,61.80
2018-11-05T05:39:59.528Z,62.05
2018-11-05T05:40:37.685Z,61.46
2018-11-05T05:41:15.691Z,61.64
2018-11-05T05:41:53.641Z,62.08
2018-11-05T05:42:31.532Z,62.20
2018-11-05T05:43:09.562Z,61.58
2018-11-05T05:43:47.478Z,61.60
2018-11-05T05:44:25.387Z,62.09
2018-11-05T05:45:03.373Z,62.20
2018-11-05T05:45:41.418Z,62.43
2018-11-05T05:46:19.494Z,62.42
2018-11-05T05:46:58.504Z,62.37
2018-11-05T05:47:36.420Z,61.96
2018-11-05T05:48:14.977Z,61.36
2018-11-05T05:48:52.860Z,62.36
2018-11-05T05:49:30.805Z,62.79
2018-11-05T05:50:10.853Z,62.74
2018-11-05T05:50:48.937Z,62.54
2018-11-05T05:51:27.149Z,63.19
2018-11-05T05:52:05.044Z,63.60
2018-11-05T05:52:43.822Z,64.29
2018-11-05T05:53:22.066Z,64.68
2018-11-05T05:54:00.022Z,64.55
2018-11-05T05:54:38.869Z,63.84
2018-11-05T05:55:16.869Z,63.51
2018-11-05T05:55:55.098Z,63.88
2018-11-05T05:56:33.081Z,63.95
2018-11-05T05:57:11.559Z,63.90
2018-11-05T05:57:49.581Z,63.68
2018-11-05T05:58:27.688Z,64.11
2018-11-05T05:59:05.624Z,63.99
2018-11-05T05:59:43.593Z,63.21
2018-11-05T06:00:21.624Z,63.22
2018-11-05T06:00:59.620Z,62.78
2018-11-05T06:01:37.515Z,63.98
2018-11-05T06:02:15.440Z,63.19
2018-11-05T06:02:53.386Z,62.92
2018-11-05T06:03:31.322Z,63.04
2018-11-05T06:04:09.477Z,63.27
2018-11-05T06:04:47.532Z,62.53
2018-11-05T06:05:25.549Z,62.60
2018-11-05T06:06:04.621Z,62.76
2018-11-05T06:06:42.583Z,63.62
2018-11-05T06:07:20.714Z,63.70
2018-11-05T06:07:58.643Z,63.47
2018-11-05T06:08:37.346Z,64.09
2018-11-05T06:09:15.385Z,63.75
2018-11-05T06:09:53.362Z,63.26
2018-11-05T06:10:31.269Z,63.25
2018-11-05T06:11:09.351Z,63.28
2018-11-05T06:11:47.342Z,63.68
2018-11-05T06:12:25.301Z,63.65
2018-11-05T06:13:05.256Z,62.47
2018-11-05T06:13:43.771Z,62.91
2018-11-05T06:14:21.841Z,62.81
2018-11-05T06:14:59.842Z,63.09
2018-11-05T06:15:37.701Z,63.87
2018-11-05T06:16:15.652Z,63.01
2018-11-05T06:16:53.784Z,63.42
2018-11-05T06:17:31.733Z,62.90
2018-11-05T06:18:09.983Z,63.86
2018-11-05T06:18:49.814Z,63.32
2018-11-05T06:19:27.746Z,63.38
2018-11-05T06:20:05.818Z,63.47
2018-11-05T06:20:44.028Z,63.65
2018-11-05T06:21:21.949Z,63.45
2018-11-05T06:22:00.034Z,63.43
2018-11-05T06:22:38.151Z,63.43
2018-11-05T06:23:17.132Z,63.47
2018-11-05T06:23:56.144Z,63.52
2018-11-05T06:24:34.113Z,62.99
2018-11-05T06:25:12.455Z,63.01
2018-11-05T06:25:50.498Z,62.31
2018-11-05T06:26:28.407Z,62.96
2018-11-05T06:27:06.384Z,63.29
2018-11-05T06:27:44.321Z,63.67
2018-11-05T06:28:22.244Z,63.27
2018-11-05T06:29:00.191Z,63.65
2018-11-05T06:29:38.178Z,63.43
2018-11-05T06:30:20.283Z,62.85
2018-11-05T06:30:58.192Z,63.50
2018-11-05T06:31:36.881Z,63.61
2018-11-05T06:32:14.912Z,63.44
2018-11-05T06:32:53.580Z,63.46
2018-11-05T06:33:31.766Z,62.89
2018-11-05T06:34:09.868Z,63.63
2018-11-05T06:34:47.831Z,63.22
2018-11-05T06:35:25.934Z,63.22
2018-11-05T06:36:04.009Z,63.01
2018-11-05T06:36:42.008Z,62.84
2018-11-05T06:37:20.162Z,63.30
2018-11-05T06:37:58.048Z,64.61
2018-11-05T06:38:36.015Z,63.40
2018-11-05T06:39:15.376Z,63.27
2018-11-05T06:39:53.346Z,64.97
2018-11-05T06:40:31.500Z,63.96
2018-11-05T06:41:10.353Z,64.29
2018-11-05T06:41:48.381Z,64.08
2018-11-05T06:42:26.413Z,65.00
2018-11-05T06:43:04.494Z,63.55
2018-11-05T06:43:42.602Z,63.20
2018-11-05T06:44:20.638Z,64.29
2018-11-05T06:44:58.776Z,64.57
2018-11-05T06:45:36.809Z,64.70
2018-11-05T06:46:14.814Z,64.19
2018-11-05T06:46:52.737Z,64.97
2018-11-05T06:47:30.741Z,64.40
2018-11-05T06:48:08.790Z,64.01
2018-11-05T06:48:46.875Z,64.92
2018-11-05T06:49:24.858Z,63.60
2018-11-05T06:50:02.841Z,62.86
2018-11-05T06:50:41.047Z,63.35
2018-11-05T06:51:19.009Z,63.92
2018-11-05T06:51:57.072Z,63.47
2018-11-05T06:52:34.977Z,62.99
2018-11-05T06:53:13.007Z,63.74
2018-11-05T06:53:51.035Z,63.01
2018-11-05T06:54:29.037Z,63.23
2018-11-05T06:55:08.147Z,63.85
2018-11-05T06:55:46.094Z,63.29
2018-11-05T06:56:24.032Z,63.89
2018-11-05T06:57:02.021Z,64.28
2018-11-05T06:57:41.260Z,64.24
2018-11-05T06:58:19.225Z,64.03
2018-11-05T06:58:57.109Z,63.28
2018-11-05T06:59:35.109Z,64.49
2018-11-05T07:00:17.174Z,64.41
2018-11-05T07:00:55.112Z,64.56
2018-11-05T07:01:34.018Z,63.95
2018-11-05T07:02:11.983Z,63.64
2018-11-05T07:02:49.997Z,63.27
2018-11-05T07:03:29.090Z,63.00
2018-11-05T07:04:06.926Z,63.04
2018-11-05T07:04:45.026Z,63.51
2018-11-05T07:05:23.017Z,63.14
2018-11-05T07:06:01.140Z,62.68
2018-11-05T07:06:39.217Z,63.66
2018-11-05T07:07:17.118Z,63.23
2018-11-05T07:07:55.232Z,63.36
2018-11-05T07:08:33.433Z,63.47
2018-11-05T07:09:14.750Z,62.20
2018-11-05T07:09:52.812Z,61.92
2018-11-05T07:10:30.855Z,62.37
2018-11-05T07:11:08.861Z,61.41
2018-11-05T07:11:46.774Z,61.37
2018-11-05T07:12:24.688Z,61.17
2018-11-05T07:13:02.610Z,60.62
2018-11-05T07:13:40.766Z,60.17
2018-11-05T07:14:18.672Z,61.21
2018-11-05T07:14:56.578Z,62.56
2018-11-05T07:15:34.589Z,61.91
2018-11-05T07:16:12.648Z,61.87
2018-11-05T07:16:50.598Z,62.85
2018-11-05T07:17:28.594Z,62.79
2018-11-05T07:18:06.526Z,61.82
2018-11-05T07:18:44.691Z,62.49
2018-11-05T07:19:23.040Z,62.81
2018-11-05T07:20:01.172Z,63.06
2018-11-05T07:20:39.002Z,62.57
2018-11-05T07:21:16.976Z,63.37
2018-11-05T07:21:56.009Z,63.64
2018-11-05T07:22:33.997Z,63.95
2018-11-05T07:23:12.077Z,63.56
2018-11-05T07:23:49.961Z,64.20
2018-11-05T07:24:27.923Z,63.94
2018-11-05T07:25:05.747Z,63.29
2018-11-05T07:25:43.696Z,63.64
2018-11-05T07:26:21.703Z,62.51
2018-11-05T07:26:59.737Z,62.46
2018-11-05T07:27:37.827Z,62.54
2018-11-05T07:28:15.926Z,63.15
2018-11-05T07:28:54.048Z,63.40
2018-11-05T07:29:32.153Z,63.61
2018-11-05T07:30:12.578Z,63.59
2018-11-05T07:30:50.555Z,63.74
2018-11-05T07:31:28.585Z,64.06
2018-11-05T07:32:06.571Z,64.13
2018-11-05T07:32:44.564Z,63.69
2018-11-05T07:33:22.469Z,64.18
2018-11-05T07:34:01.919Z,64.39
2018-11-05T07:34:40.120Z,63.69
2018-11-05T07:35:18.456Z,64.34
2018-11-05T07:35:56.554Z,64.85
2018-11-05T07:36:34.468Z,65.03
2018-11-05T07:37:12.387Z,63.87
2018-11-05T07:37:50.667Z,64.15
2018-11-05T07:38:29.355Z,63.91
2018-11-05T07:39:09.209Z,64.64
2018-11-05T07:39:47.198Z,64.69
2018-11-05T07:40:25.213Z,64.69
2018-11-05T07:41:03.276Z,65.14
2018-11-05T07:41:41.769Z,64.88
2018-11-05T07:42:19.758Z,64.47
2018-11-05T07:42:57.665Z,64.56
2018-11-05T07:43:35.597Z,64.84
2018-11-05T07:44:14.471Z,65.58
2018-11-05T07:44:52.370Z,64.62
2018-11-05T07:45:30.416Z,65.66
2018-11-05T07:46:09.715Z,65.53
2018-11-05T07:46:47.846Z,65.85
2018-11-05T07:47:25.765Z,65.95
2018-11-05T07:48:03.749Z,65.83
2018-11-05T07:48:42.973Z,66.03
2018-11-05T07:49:21.003Z,66.19
2018-11-05T07:49:59.072Z,66.71
2018-11-05T07:50:37.100Z,66.86
2018-11-05T07:51:15.121Z,66.71
2018-11-05T07:51:53.283Z,66.98
2018-11-05T07:52:31.458Z,67.44
2018-11-05T07:53:09.522Z,67.34
2018-11-05T07:53:47.652Z,67.46
2018-11-05T07:54:25.738Z,67.51
2018-11-05T07:55:04.051Z,67.71
2018-11-05T07:55:41.942Z,67.68
2018-11-05T07:56:20.013Z,67.74
2018-11-05T07:56:58.092Z,67.62
2018-11-05T07:57:36.115Z,67.87
2018-11-05T07:58:14.361Z,67.84
2018-11-05T07:58:52.297Z,67.83
2018-11-05T07:59:30.333Z,67.35
2018-11-05T08:00:12.927Z,67.07
2018-11-05T08:00:55.830Z,67.41
2018-11-05T08:01:34.793Z,67.85
2018-11-05T08:02:13.711Z,67.87
2018-11-05T08:02:52.880Z,67.50
2018-11-05T08:03:32.751Z,66.86
2018-11-05T08:04:10.828Z,66.55
2018-11-05T08:04:48.749Z,66.17
2018-11-05T08:05:27.009Z,66.43
2018-11-05T08:06:04.994Z,66.72
2018-11-05T08:06:42.945Z,66.72
2018-11-05T08:07:21.015Z,66.48
2018-11-05T08:07:58.965Z,66.20
2018-11-05T08:08:37.026Z,66.32
2018-11-05T08:09:15.303Z,66.45
2018-11-05T08:09:53.325Z,66.40
2018-11-05T08:10:31.332Z,66.63
2018-11-05T08:11:09.367Z,66.66
2018-11-05T08:11:47.536Z,66.43
2018-11-05T08:12:25.608Z,66.07
2018-11-05T08:13:03.463Z,65.44
2018-11-05T08:13:41.401Z,65.10
2018-11-05T08:14:19.535Z,64.79
2018-11-05T08:14:57.706Z,65.04
2018-11-05T08:15:35.612Z,64.74
2018-11-05T08:16:13.655Z,64.75
2018-11-05T08:16:51.648Z,64.55